Time;durP1;ratioP1;P1;durP2;ratioP2;P2;SDS_P1;SDS_P2;PMS_P1;PMS_P2;Temp;Humidity;BMP_temperature;BMP_pressure;BME280_temperature;BME280_humidity;BME280_pressure;Samples;Min_cycle;Max_cycle;Signal;HPM_P1;HPM_P2
2022/12/01 00:02:05;;;;;;;46.33;21.48;;;3.50;99.90;;;;;;5093253;28;20358;-75
2022/12/01 00:04:30;;;;;;;37.33;18.95;;;3.50;99.90;;;;;;5097040;28;20032;-75
2022/12/01 00:06:56;;;;;;;38.63;20.27;;;3.50;99.90;;;;;;5098404;28;20127;-75
2022/12/01 00:12:06;;;;;;;38.38;18.35;;;3.50;99.90;;;;;;5092240;28;20043;-75
2022/12/01 00:14:31;;;;;;;39.75;19.17;;;3.50;99.90;;;;;;5093470;28;20024;-75
2022/12/01 00:16:57;;;;;;;42.45;21.17;;;3.50;99.90;;;;;;5090501;28;20024;-76
2022/12/01 00:19:26;;;;;;;38.55;19.38;;;3.50;99.90;;;;;;5099455;28;20103;-74
2022/12/01 00:21:53;;;;;;;40.63;19.55;;;3.40;99.90;;;;;;5103447;28;20484;-75
2022/12/01 00:24:18;;;;;;;40.05;19.70;;;3.50;99.90;;;;;;5097376;28;20501;-75
2022/12/01 00:26:44;;;;;;;44.47;21.17;;;3.40;99.90;;;;;;5091374;28;20028;-76
2022/12/01 00:29:10;;;;;;;35.65;18.52;;;3.40;99.90;;;;;;5092912;28;20028;-75
2022/12/01 00:31:36;;;;;;;36.75;19.55;;;3.50;99.90;;;;;;5103367;28;20023;-75
2022/12/01 00:34:01;;;;;;;37.58;19.55;;;3.50;99.90;;;;;;5112705;28;20031;-75
2022/12/01 00:36:27;;;;;;;40.25;19.48;;;3.40;99.90;;;;;;5111416;28;20024;-75
2022/12/01 00:38:56;;;;;;;39.83;19.55;;;3.40;99.90;;;;;;5105713;28;20472;-75
2022/12/01 00:41:23;;;;;;;45.40;21.67;;;3.40;99.90;;;;;;5103726;28;20032;-76
2022/12/01 00:43:49;;;;;;;39.60;20.58;;;3.30;99.90;;;;;;5102270;28;20027;-76
2022/12/01 00:46:14;;;;;;;37.72;18.88;;;3.30;99.90;;;;;;5109918;28;20411;-75
2022/12/01 00:48:43;;;;;;;34.78;17.73;;;3.40;99.90;;;;;;5100560;28;20034;-75
2022/12/01 00:51:08;;;;;;;36.45;18.48;;;3.50;99.90;;;;;;5090868;28;20069;-76
2022/12/01 00:53:34;;;;;;;31.55;18.15;;;3.50;99.90;;;;;;5102560;28;20465;-76
2022/12/01 00:55:59;;;;;;;35.80;18.67;;;3.50;99.90;;;;;;5091056;28;20075;-75
2022/12/01 00:58:25;;;;;;;33.40;17.80;;;3.40;99.90;;;;;;5101230;28;20028;-75
2022/12/01 01:00:59;;;;;;;36.75;18.17;;;3.50;99.90;;;;;;5103090;28;20024;-75
2022/12/01 01:03:25;;;;;;;37.53;18.85;;;3.40;99.90;;;;;;5093608;28;20421;-75
2022/12/01 01:05:50;;;;;;;32.97;17.40;;;3.40;99.90;;;;;;5106629;28;20020;-75
2022/12/01 01:08:16;;;;;;;35.90;18.63;;;3.30;99.90;;;;;;5111236;28;20105;-76
2022/12/01 01:10:43;;;;;;;35.13;17.75;;;3.30;99.90;;;;;;5100871;28;20028;-75
2022/12/01 01:13:10;;;;;;;34.35;18.20;;;3.20;99.90;;;;;;5111916;28;20016;-75
2022/12/01 01:15:36;;;;;;;35.08;18.65;;;3.30;99.90;;;;;;5106487;28;20039;-76
2022/12/01 01:18:01;;;;;;;34.20;18.20;;;3.30;99.90;;;;;;5095006;28;20034;-75
2022/12/01 01:20:27;;;;;;;34.05;17.08;;;3.20;99.90;;;;;;5098566;28;20341;-76
2022/12/01 01:22:53;;;;;;;35.80;18.70;;;3.30;99.90;;;;;;5110679;28;20028;-75
2022/12/01 01:25:19;;;;;;;33.60;18.15;;;3.40;99.90;;;;;;5093050;28;20023;-75
2022/12/01 01:27:44;;;;;;;36.15;19.58;;;3.40;99.90;;;;;;5077940;28;20059;-74
2022/12/01 01:30:10;;;;;;;37.40;19.13;;;3.50;99.90;;;;;;5092528;28;20027;-76
2022/12/01 01:32:36;;;;;;;35.45;17.77;;;3.50;99.90;;;;;;5100171;28;20276;-75
2022/12/01 01:35:02;;;;;;;37.17;17.98;;;3.50;99.90;;;;;;5101189;28;20040;-75
2022/12/01 01:37:27;;;;;;;37.95;19.50;;;3.50;99.90;;;;;;5099844;28;20055;-75
2022/12/01 01:39:53;;;;;;;35.97;18.30;;;3.40;99.90;;;;;;5109245;28;20077;-75
2022/12/01 01:42:19;;;;;;;34.75;18.30;;;3.30;99.90;;;;;;5111122;28;20031;-75
2022/12/01 01:44:47;;;;;;;33.15;17.58;;;3.40;99.90;;;;;;5110978;28;20085;-75
2022/12/01 01:47:15;;;;;;;37.47;19.30;;;3.50;99.90;;;;;;5111069;28;20027;-75
2022/12/01 01:49:41;;;;;;;33.75;18.08;;;3.40;99.90;;;;;;5109387;28;20077;-75
2022/12/01 01:52:08;;;;;;;36.13;18.13;;;3.40;99.90;;;;;;5096767;28;20500;-75
2022/12/01 01:54:41;;;;;;;35.45;18.13;;;3.30;99.90;;;;;;5091967;28;20028;-76
2022/12/01 01:57:10;;;;;;;33.92;17.50;;;3.30;99.90;;;;;;5105562;28;20027;-76
2022/12/01 01:59:42;;;;;;;33.25;17.83;;;3.30;99.90;;;;;;5103830;28;20045;-75
2022/12/01 02:02:09;;;;;;;36.22;17.92;;;3.30;99.90;;;;;;5092260;28;20031;-75
2022/12/01 02:04:39;;;;;;;36.67;18.05;;;3.30;99.90;;;;;;5090786;28;20028;-76
2022/12/01 02:07:06;;;;;;;35.47;18.55;;;3.30;99.90;;;;;;5093099;28;20038;-75
2022/12/01 02:09:31;;;;;;;37.25;19.88;;;3.30;99.90;;;;;;5106969;28;20026;-75
2022/12/01 02:12:00;;;;;;;36.85;19.30;;;3.30;99.90;;;;;;5106420;28;20395;-75
2022/12/01 02:14:47;;;;;;;39.47;19.98;;;3.30;99.90;;;;;;5091312;28;20039;-74
2022/12/01 02:17:42;;;;;;;39.03;20.63;;;3.30;99.90;;;;;;5100662;28;20020;-75
2022/12/01 02:20:21;;;;;;;37.40;19.45;;;3.30;99.90;;;;;;5091206;28;20059;-74
2022/12/01 02:23:08;;;;;;;37.60;19.02;;;3.30;99.90;;;;;;5110657;28;20043;-76
2022/12/01 02:25:57;;;;;;;38.80;20.13;;;3.20;99.90;;;;;;5097945;28;20020;-76
2022/12/01 02:28:31;;;;;;;34.90;17.35;;;3.20;99.90;;;;;;5072643;28;20481;-77
2022/12/01 02:31:02;;;;;;;34.00;18.30;;;3.10;99.90;;;;;;5088971;28;20058;-76
2022/12/01 02:33:48;;;;;;;35.25;18.58;;;3.10;99.90;;;;;;5091136;28;20036;-76
2022/12/01 02:36:24;;;;;;;34.45;17.90;;;3.30;99.90;;;;;;5107655;28;20038;-76
2022/12/01 02:38:55;;;;;;;37.22;19.27;;;3.20;99.90;;;;;;5105019;28;20083;-76
2022/12/01 02:41:26;;;;;;;38.40;19.65;;;3.20;99.90;;;;;;5090539;28;20078;-76
2022/12/01 02:44:15;;;;;;;40.05;20.50;;;3.20;99.90;;;;;;5097230;28;20103;-76
2022/12/01 02:47:04;;;;;;;38.38;19.92;;;3.20;99.90;;;;;;5097327;28;20061;-76
2022/12/01 02:49:35;;;;;;;38.97;18.65;;;3.20;99.90;;;;;;5104273;28;20058;-76
2022/12/01 02:52:05;;;;;;;37.97;18.83;;;3.20;99.90;;;;;;5089600;28;20032;-76
2022/12/01 02:54:32;;;;;;;36.65;19.00;;;3.20;99.90;;;;;;5105614;28;20016;-76
2022/12/01 02:56:57;;;;;;;35.17;19.08;;;3.20;99.90;;;;;;5105696;28;20036;-75
2022/12/01 02:59:23;;;;;;;36.65;18.35;;;3.20;99.90;;;;;;5108082;28;20070;-76
2022/12/01 03:02:16;;;;;;;34.80;18.52;;;3.10;99.90;;;;;;5093629;28;20032;-76
2022/12/01 03:04:49;;;;;;;36.17;19.88;;;3.10;99.90;;;;;;5104353;28;20028;-76
2022/12/01 03:07:39;;;;;;;34.70;17.33;;;3.00;99.90;;;;;;5114270;28;20027;-76
2022/12/01 03:10:27;;;;;;;35.05;18.77;;;2.90;99.90;;;;;;5103918;28;20555;-76
2022/12/01 03:13:30;;;;;;;35.45;19.85;;;3.00;99.90;;;;;;5113910;28;20031;-76
2022/12/01 03:16:11;;;;;;;37.85;17.70;;;2.90;99.90;;;;;;5111112;28;20035;-76
2022/12/01 03:18:36;;;;;;;40.25;18.63;;;2.90;99.90;;;;;;5097171;28;20089;-76
2022/12/01 03:21:11;;;;;;;33.95;17.65;;;3.00;99.90;;;;;;5093185;28;20024;-76
2022/12/01 03:23:42;;;;;;;36.75;18.23;;;2.90;99.90;;;;;;5098236;28;20023;-74
2022/12/01 03:26:15;;;;;;;37.83;19.90;;;2.80;99.90;;;;;;5101140;28;20144;-75
2022/12/01 03:28:46;;;;;;;35.85;18.98;;;2.80;99.90;;;;;;5106303;28;20123;-76
2022/12/01 03:31:16;;;;;;;36.97;18.23;;;2.90;99.90;;;;;;5093775;28;20035;-75
2022/12/01 03:34:05;;;;;;;38.22;20.05;;;3.00;99.90;;;;;;5104388;28;20032;-76
2022/12/01 03:36:48;;;;;;;35.53;19.33;;;2.90;99.90;;;;;;5093809;28;20147;-75
2022/12/01 03:39:19;;;;;;;38.15;19.65;;;2.90;99.90;;;;;;5094442;28;20032;-75
2022/12/01 03:41:50;;;;;;;35.58;18.75;;;2.80;99.90;;;;;;5099672;28;20028;-75
2022/12/01 03:44:21;;;;;;;40.42;20.40;;;2.70;99.90;;;;;;5114455;28;20024;-75
2022/12/01 03:47:14;;;;;;;32.70;17.90;;;2.80;99.90;;;;;;5113026;28;20570;-75
2022/12/01 03:49:41;;;;;;;35.05;18.75;;;2.80;99.90;;;;;;5102219;28;20059;-76
2022/12/01 03:52:32;;;;;;;37.67;18.33;;;2.80;99.90;;;;;;5092480;28;20627;-76
2022/12/01 03:55:12;;;;;;;36.78;19.17;;;2.70;99.90;;;;;;5093167;28;20024;-76
2022/12/01 03:57:59;;;;;;;35.80;18.73;;;2.80;99.90;;;;;;5103097;28;20110;-76
2022/12/01 04:00:25;;;;;;;38.10;19.85;;;2.80;99.90;;;;;;5093614;28;20032;-75
2022/12/01 04:02:58;;;;;;;39.33;19.75;;;2.70;99.90;;;;;;5092098;28;20065;-74
2022/12/01 04:05:25;;;;;;;35.33;18.92;;;2.80;99.90;;;;;;5093444;28;20400;-75
2022/12/01 04:07:51;;;;;;;36.05;20.02;;;2.70;99.90;;;;;;5101543;28;20058;-75
2022/12/01 04:10:17;;;;;;;36.97;19.88;;;2.80;99.90;;;;;;5097248;28;20036;-75
2022/12/01 04:12:42;;;;;;;36.05;18.35;;;2.70;99.90;;;;;;5103308;28;20028;-76
2022/12/01 04:15:11;;;;;;;39.85;19.92;;;2.80;99.90;;;;;;5112754;28;20023;-76
2022/12/01 04:17:37;;;;;;;38.53;19.55;;;2.80;99.90;;;;;;5111915;28;20068;-76
2022/12/01 04:20:08;;;;;;;33.05;18.67;;;2.70;99.90;;;;;;5092543;28;20035;-74
2022/12/01 04:22:33;;;;;;;37.90;20.08;;;2.70;99.90;;;;;;5096878;28;20059;-75
2022/12/01 04:24:59;;;;;;;41.22;20.10;;;2.80;99.90;;;;;;5099805;28;20070;-75
2022/12/01 04:27:24;;;;;;;36.15;20.27;;;2.80;99.90;;;;;;5112531;28;20031;-75
2022/12/01 04:29:50;;;;;;;36.92;19.95;;;2.70;99.90;;;;;;5097443;28;20032;-75
2022/12/01 04:32:16;;;;;;;33.08;18.35;;;2.60;99.90;;;;;;5110746;28;20032;-74
2022/12/01 04:34:42;;;;;;;37.28;18.77;;;2.60;99.90;;;;;;5113271;28;20036;-75
2022/12/01 04:37:08;;;;;;;31.75;17.70;;;2.60;99.90;;;;;;5093807;28;20475;-75
2022/12/01 04:39:35;;;;;;;37.53;19.23;;;2.60;99.90;;;;;;5109601;28;20031;-75
2022/12/01 04:42:01;;;;;;;38.40;19.52;;;2.60;99.90;;;;;;5092987;28;20082;-74
2022/12/01 04:44:26;;;;;;;39.25;19.83;;;2.50;99.90;;;;;;5093853;28;20141;-75
2022/12/01 04:46:52;;;;;;;38.38;18.98;;;2.60;99.90;;;;;;5091358;28;20165;-75
2022/12/01 04:49:19;;;;;;;37.78;20.25;;;2.50;99.90;;;;;;5092648;28;20042;-76
2022/12/01 04:51:44;;;;;;;35.50;19.27;;;2.70;99.90;;;;;;5092232;28;20019;-75
2022/12/01 04:54:10;;;;;;;39.15;19.58;;;2.60;99.90;;;;;;5106333;28;20553;-75
2022/12/01 04:56:36;;;;;;;35.00;18.70;;;2.70;99.90;;;;;;5102633;28;20440;-76
2022/12/01 04:59:02;;;;;;;42.38;19.67;;;2.70;99.90;;;;;;5091600;28;20024;-75
2022/12/01 05:01:27;;;;;;;37.78;19.02;;;2.60;99.90;;;;;;5091889;28;20097;-75
2022/12/01 05:03:53;;;;;;;37.60;19.90;;;2.70;99.90;;;;;;5091510;28;20028;-75
2022/12/01 05:06:22;;;;;;;40.67;19.77;;;2.70;99.90;;;;;;5103187;28;20102;-76
2022/12/01 05:08:48;;;;;;;37.88;20.27;;;2.80;99.90;;;;;;5090289;28;20056;-75
2022/12/01 05:11:14;;;;;;;37.33;20.13;;;2.70;99.90;;;;;;5101836;28;20361;-76
2022/12/01 05:13:43;;;;;;;37.42;19.85;;;2.60;99.90;;;;;;5103604;28;20119;-76
2022/12/01 05:16:12;;;;;;;37.05;20.60;;;2.60;99.90;;;;;;5091373;28;20020;-75
2022/12/01 05:18:38;;;;;;;37.33;19.27;;;2.60;99.90;;;;;;5097309;28;20024;-75
2022/12/01 05:21:05;;;;;;;39.72;19.80;;;2.60;99.90;;;;;;5101449;28;20644;-75
2022/12/01 05:23:33;;;;;;;37.92;19.75;;;2.60;99.90;;;;;;5107691;28;20035;-77
2022/12/01 05:26:00;;;;;;;37.90;20.27;;;2.60;99.90;;;;;;5101654;28;20409;-75
2022/12/01 05:28:26;;;;;;;39.22;21.08;;;2.70;99.90;;;;;;5093238;28;20362;-75
2022/12/01 05:30:53;;;;;;;39.53;20.05;;;2.80;99.90;;;;;;5095731;28;20056;-75
2022/12/01 05:33:19;;;;;;;42.80;20.55;;;2.70;99.90;;;;;;5109782;28;20030;-75
2022/12/01 05:35:47;;;;;;;38.70;20.70;;;2.70;99.90;;;;;;5111639;28;20019;-75
2022/12/01 05:38:12;;;;;;;40.28;21.48;;;2.80;99.90;;;;;;5111361;28;20052;-74
2022/12/01 05:40:38;;;;;;;40.78;20.15;;;2.70;99.90;;;;;;5100852;28;20914;-74
2022/12/01 05:43:04;;;;;;;38.05;20.30;;;2.70;99.90;;;;;;5090659;28;20035;-74
2022/12/01 05:45:30;;;;;;;39.67;21.17;;;2.60;99.90;;;;;;5091797;28;20430;-74
2022/12/01 05:47:57;;;;;;;40.70;20.85;;;2.60;99.90;;;;;;5078097;28;20051;-74
2022/12/01 05:50:24;;;;;;;38.80;21.65;;;2.60;99.90;;;;;;5105620;28;20468;-75
2022/12/01 05:52:49;;;;;;;38.15;20.40;;;2.60;99.90;;;;;;5088333;28;20067;-75
2022/12/01 05:55:15;;;;;;;41.67;21.90;;;2.60;99.90;;;;;;5091683;28;20132;-75
2022/12/01 05:57:41;;;;;;;39.47;20.05;;;2.60;99.90;;;;;;5095106;28;20115;-75
2022/12/01 06:00:07;;;;;;;44.22;22.38;;;2.50;99.90;;;;;;5100789;28;20035;-74
2022/12/01 06:02:33;;;;;;;41.47;21.95;;;2.50;99.90;;;;;;5090810;28;20030;-75
2022/12/01 06:04:59;;;;;;;42.05;22.27;;;2.40;99.90;;;;;;5098622;28;20084;-75
2022/12/01 06:07:24;;;;;;;45.38;23.52;;;2.50;99.90;;;;;;5091153;28;20042;-74
2022/12/01 06:09:51;;;;;;;46.53;22.17;;;2.60;99.90;;;;;;5098195;28;20032;-74
2022/12/01 06:12:18;;;;;;;44.28;23.25;;;2.60;99.90;;;;;;5091726;28;20024;-74
2022/12/01 06:14:44;;;;;;;46.80;24.13;;;2.60;99.90;;;;;;5090786;28;20031;-75
2022/12/01 06:17:10;;;;;;;43.40;22.10;;;2.60;99.90;;;;;;5090079;28;20017;-75
2022/12/01 06:19:36;;;;;;;45.95;23.80;;;2.60;99.90;;;;;;5106214;28;20559;-74
2022/12/01 06:22:02;;;;;;;46.15;23.95;;;2.60;99.90;;;;;;5108466;28;20027;-77
2022/12/01 06:24:28;;;;;;;43.10;23.48;;;2.60;99.90;;;;;;5099635;28;20016;-80
2022/12/01 06:26:53;;;;;;;45.10;22.90;;;2.60;99.90;;;;;;5071837;28;20478;-78
2022/12/01 06:29:19;;;;;;;44.72;22.27;;;2.80;99.90;;;;;;5093524;28;20036;-79
2022/12/01 06:31:44;;;;;;;45.80;23.20;;;2.70;99.90;;;;;;5109033;28;20024;-75
2022/12/01 06:34:10;;;;;;;44.60;22.48;;;2.70;99.90;;;;;;5123115;28;20031;-76
2022/12/01 06:36:36;;;;;;;42.63;23.08;;;2.80;99.90;;;;;;5114636;28;20072;-77
2022/12/01 06:39:07;;;;;;;46.13;23.10;;;2.80;99.90;;;;;;5102570;28;20036;-80
2022/12/01 06:41:32;;;;;;;44.78;22.92;;;2.70;99.90;;;;;;5115852;28;20232;-77
2022/12/01 06:43:59;;;;;;;43.75;23.25;;;2.70;99.90;;;;;;5114774;28;20122;-76
2022/12/01 06:46:25;;;;;;;47.10;23.60;;;2.60;99.90;;;;;;5106299;28;20020;-74
2022/12/01 06:48:51;;;;;;;49.30;24.15;;;2.50;99.90;;;;;;5093358;28;20354;-76
2022/12/01 06:51:16;;;;;;;48.92;24.67;;;2.50;99.90;;;;;;5100531;28;20085;-73
2022/12/01 06:53:42;;;;;;;42.38;22.85;;;2.60;99.90;;;;;;5102938;28;20024;-74
2022/12/01 06:56:07;;;;;;;44.80;23.30;;;2.60;99.90;;;;;;5093805;28;20024;-73
2022/12/01 06:58:33;;;;;;;49.00;24.15;;;2.70;99.90;;;;;;5094575;28;20028;-74
2022/12/01 07:00:59;;;;;;;43.80;23.13;;;2.70;99.90;;;;;;5093567;28;20111;-74
2022/12/01 07:03:26;;;;;;;46.13;23.25;;;2.60;99.90;;;;;;5107894;28;20027;-77
2022/12/01 07:05:59;;;;;;;40.15;21.00;;;2.60;99.90;;;;;;5113556;28;20027;-73
2022/12/01 07:08:26;;;;;;;43.03;22.88;;;2.70;99.90;;;;;;5098181;28;20045;-72
2022/12/01 07:11:11;;;;;;;43.00;22.05;;;2.80;99.90;;;;;;5072111;28;20025;-76
2022/12/01 07:13:37;;;;;;;42.95;22.77;;;2.70;99.90;;;;;;5071499;28;20043;-75
2022/12/01 07:16:03;;;;;;;43.80;23.90;;;2.70;99.90;;;;;;5072638;28;20389;-75
2022/12/01 07:18:30;;;;;;;39.42;21.75;;;2.70;99.90;;;;;;5080755;28;20035;-75
2022/12/01 07:21:07;;;;;;;46.08;24.10;;;2.70;99.90;;;;;;5092866;28;20035;-75
2022/12/01 07:23:34;;;;;;;41.35;22.10;;;2.70;99.90;;;;;;5077015;28;20477;-76
2022/12/01 07:26:05;;;;;;;39.08;22.02;;;2.80;99.90;;;;;;5075216;28;20025;-77
2022/12/01 07:28:31;;;;;;;44.20;23.65;;;2.70;99.90;;;;;;5084598;28;20028;-76
2022/12/01 07:31:05;;;;;;;44.28;23.23;;;2.70;99.90;;;;;;5091685;28;20031;-76
2022/12/01 07:33:31;;;;;;;46.88;21.75;;;2.60;99.90;;;;;;5080566;28;20093;-74
2022/12/01 07:35:58;;;;;;;43.20;22.30;;;2.60;99.90;;;;;;5080140;28;20477;-73
2022/12/01 07:38:23;;;;;;;45.15;22.77;;;2.60;99.90;;;;;;5082374;28;20377;-76
2022/12/01 07:40:49;;;;;;;44.35;23.10;;;2.60;99.90;;;;;;5061432;28;20040;-76
2022/12/01 07:43:14;;;;;;;43.15;21.20;;;2.80;99.90;;;;;;5085643;28;20028;-78
2022/12/01 07:45:40;;;;;;;45.17;22.35;;;2.80;99.90;;;;;;5091097;28;20027;-75
2022/12/01 07:48:06;;;;;;;39.60;21.77;;;2.80;99.90;;;;;;5080832;28;20148;-74
2022/12/01 07:50:31;;;;;;;39.25;20.85;;;2.70;99.90;;;;;;5085072;28;20020;-86
2022/12/01 07:52:57;;;;;;;45.95;23.25;;;2.70;99.90;;;;;;5073047;28;20496;-73
2022/12/01 07:55:22;;;;;;;44.33;23.35;;;2.60;99.90;;;;;;5073140;28;20039;-74
2022/12/01 07:57:48;;;;;;;41.42;22.13;;;2.60;99.90;;;;;;5056957;28;20111;-73
2022/12/01 08:00:14;;;;;;;42.65;22.38;;;2.70;99.90;;;;;;5077763;28;20054;-74
2022/12/01 08:02:40;;;;;;;45.42;22.27;;;2.70;99.90;;;;;;5077625;28;20028;-74
2022/12/01 08:05:05;;;;;;;44.88;23.17;;;2.70;99.90;;;;;;5076315;28;20108;-74
2022/12/01 08:07:31;;;;;;;40.70;21.05;;;2.70;99.90;;;;;;5078628;28;20120;-72
2022/12/01 08:09:57;;;;;;;42.35;22.33;;;2.70;99.90;;;;;;5099932;28;20043;-74
2022/12/01 08:12:22;;;;;;;40.05;21.75;;;2.70;99.90;;;;;;5093390;28;20028;-75
2022/12/01 08:14:48;;;;;;;41.38;21.85;;;2.80;99.90;;;;;;5098217;28;20016;-74
2022/12/01 08:17:13;;;;;;;38.15;20.85;;;2.80;99.90;;;;;;5101522;28;20107;-75
2022/12/01 08:19:39;;;;;;;42.83;22.58;;;2.80;99.90;;;;;;5108571;28;20024;-75
2022/12/01 08:22:05;;;;;;;40.47;22.73;;;2.80;99.90;;;;;;5096370;28;20024;-75
2022/12/01 08:24:30;;;;;;;42.03;20.95;;;2.80;99.90;;;;;;5094412;28;20031;-75
2022/12/01 08:26:56;;;;;;;38.08;21.00;;;2.80;99.90;;;;;;5101924;28;20115;-75
2022/12/01 08:29:21;;;;;;;40.13;20.48;;;2.90;99.90;;;;;;5106826;28;20042;-75
2022/12/01 08:31:47;;;;;;;41.70;21.42;;;2.90;99.90;;;;;;5106506;28;20032;-74
2022/12/01 08:34:13;;;;;;;41.70;22.60;;;3.00;99.90;;;;;;5099967;28;20035;-75
2022/12/01 08:36:38;;;;;;;41.13;20.55;;;2.90;99.90;;;;;;5104121;28;20403;-75
2022/12/01 08:39:06;;;;;;;43.85;23.65;;;2.90;99.90;;;;;;5093309;28;20032;-74
2022/12/01 08:41:34;;;;;;;47.42;22.10;;;3.00;99.90;;;;;;5101161;28;20052;-75
2022/12/01 08:44:00;;;;;;;42.25;22.00;;;3.00;99.90;;;;;;5097055;28;20036;-75
2022/12/01 08:46:33;;;;;;;41.80;21.17;;;3.00;99.90;;;;;;5110956;28;20107;-75
2022/12/01 08:48:59;;;;;;;39.65;21.33;;;3.00;99.90;;;;;;5102836;28;20060;-75
2022/12/01 08:51:26;;;;;;;38.65;20.65;;;3.00;99.90;;;;;;5105118;28;20028;-75
2022/12/01 08:53:55;;;;;;;38.65;20.65;;;3.00;99.90;;;;;;5091732;28;20079;-75
2022/12/01 08:56:24;;;;;;;39.87;21.97;;;3.10;99.90;;;;;;5094887;28;20037;-75
2022/12/01 08:58:50;;;;;;;37.00;21.10;;;3.10;99.90;;;;;;5111429;28;20293;-74
2022/12/01 09:01:19;;;;;;;39.08;21.23;;;3.10;99.90;;;;;;5098251;28;20030;-75
2022/12/01 09:03:44;;;;;;;40.35;19.90;;;3.10;99.90;;;;;;5097613;28;20032;-75
2022/12/01 09:06:19;;;;;;;36.55;19.63;;;3.10;99.90;;;;;;5088742;28;20390;-75
2022/12/01 09:08:45;;;;;;;37.83;20.10;;;3.00;99.90;;;;;;5097090;28;20048;-74
2022/12/01 09:11:17;;;;;;;39.25;20.00;;;3.00;99.90;;;;;;5075769;28;20028;-74
2022/12/01 09:13:44;;;;;;;39.88;20.42;;;3.10;99.90;;;;;;5086917;28;20114;-75
2022/12/01 09:16:14;;;;;;;38.78;20.48;;;3.00;99.90;;;;;;5099560;28;20952;-75
2022/12/01 09:18:41;;;;;;;39.55;20.35;;;3.00;99.90;;;;;;5101977;28;20034;-75
2022/12/01 09:21:16;;;;;;;40.40;19.70;;;3.00;99.90;;;;;;5100661;28;20028;-75
2022/12/01 09:23:42;;;;;;;35.47;19.30;;;3.00;99.90;;;;;;5106400;28;20532;-75
2022/12/01 09:26:08;;;;;;;38.08;20.05;;;3.00;99.90;;;;;;5095782;28;20149;-75
2022/12/01 09:28:34;;;;;;;40.25;21.88;;;3.10;99.90;;;;;;5104907;28;20093;-74
2022/12/01 09:31:05;;;;;;;37.03;19.13;;;3.10;99.90;;;;;;5100724;28;20031;-74
2022/12/01 09:33:30;;;;;;;38.72;20.90;;;3.10;99.90;;;;;;5098205;28;20030;-75
2022/12/01 09:36:00;;;;;;;38.20;20.85;;;3.10;99.90;;;;;;5103698;28;20426;-74
2022/12/01 09:38:28;;;;;;;39.00;20.23;;;3.10;99.90;;;;;;5104917;28;20069;-75
2022/12/01 09:40:54;;;;;;;40.55;21.40;;;3.10;99.90;;;;;;5093327;28;20044;-75
2022/12/01 09:43:24;;;;;;;41.67;20.20;;;3.10;99.90;;;;;;5100678;28;20110;-75
2022/12/01 09:45:59;;;;;;;34.83;19.02;;;3.20;99.90;;;;;;5096067;28;20031;-73
2022/12/01 09:48:33;;;;;;;37.75;20.85;;;3.10;99.90;;;;;;5075058;28;20032;-73
2022/12/01 09:50:59;;;;;;;36.72;19.40;;;3.10;99.90;;;;;;5092729;28;20028;-74
2022/12/01 09:53:27;;;;;;;36.97;20.92;;;3.10;99.90;;;;;;5097705;28;20533;-75
2022/12/01 09:55:54;;;;;;;39.33;19.25;;;3.20;99.90;;;;;;5103720;28;21319;-75
2022/12/01 09:58:25;;;;;;;38.35;20.17;;;3.20;99.90;;;;;;5101402;28;20055;-76
2022/12/01 10:00:52;;;;;;;35.50;19.10;;;3.30;99.90;;;;;;5096968;28;20055;-74
2022/12/01 10:03:34;;;;;;;38.42;20.58;;;3.30;99.90;;;;;;5100274;28;20020;-74
2022/12/01 10:06:09;;;;;;;36.80;19.55;;;3.30;99.90;;;;;;5103412;28;20059;-75
2022/12/01 10:08:41;;;;;;;39.65;19.95;;;3.40;99.90;;;;;;5098718;28;20094;-75
2022/12/01 10:11:38;;;;;;;33.97;18.60;;;3.40;99.90;;;;;;5096616;28;20655;-75
2022/12/01 10:14:10;;;;;;;32.80;18.00;;;3.40;99.90;;;;;;5087108;28;20542;-75
2022/12/01 10:17:00;;;;;;;36.50;20.48;;;3.30;99.90;;;;;;5089988;28;20050;-76
2022/12/01 10:20:01;;;;;;;39.10;20.83;;;3.30;99.90;;;;;;5096344;28;20115;-75
2022/12/01 10:22:48;;;;;;;38.72;19.80;;;3.40;99.90;;;;;;5090371;28;20337;-74
2022/12/01 10:25:22;;;;;;;38.30;20.25;;;3.50;99.90;;;;;;5094453;28;20404;-75
2022/12/01 10:28:11;;;;;;;37.38;19.65;;;3.40;99.90;;;;;;5105798;28;20019;-74
2022/12/01 10:30:47;;;;;;;39.58;20.48;;;3.40;99.90;;;;;;5073002;28;20050;-74
2022/12/01 10:33:42;;;;;;;38.72;20.50;;;3.40;99.90;;;;;;5090258;28;20104;-74
2022/12/01 10:36:09;;;;;;;39.00;20.48;;;3.40;99.90;;;;;;5096965;28;20028;-75
2022/12/01 10:38:37;;;;;;;37.58;19.67;;;3.40;99.90;;;;;;5102632;28;20442;-74
2022/12/01 10:41:04;;;;;;;32.20;18.90;;;3.40;99.90;;;;;;5098888;28;20024;-76
2022/12/01 10:43:40;;;;;;;39.95;20.75;;;3.50;99.90;;;;;;5090450;28;20055;-75
2022/12/01 10:46:28;;;;;;;36.60;19.75;;;3.40;99.90;;;;;;5101247;28;20756;-74
2022/12/01 10:48:59;;;;;;;34.20;17.98;;;3.50;99.90;;;;;;5106332;28;20019;-75
2022/12/01 10:51:26;;;;;;;35.60;19.73;;;3.60;99.90;;;;;;5096809;28;20032;-74
2022/12/01 10:54:05;;;;;;;37.40;20.25;;;3.60;99.90;;;;;;5109913;28;20054;-74
2022/12/01 10:56:32;;;;;;;36.38;20.02;;;3.60;99.90;;;;;;5099281;28;20024;-74
2022/12/01 10:59:03;;;;;;;36.67;20.13;;;3.60;99.90;;;;;;5091970;28;20028;-75
2022/12/01 11:01:34;;;;;;;38.53;20.42;;;3.60;99.90;;;;;;5100978;28;20349;-74
2022/12/01 11:04:07;;;;;;;36.08;20.00;;;3.50;99.90;;;;;;5105659;28;20073;-74
2022/12/01 11:06:34;;;;;;;32.47;19.50;;;3.50;99.90;;;;;;5084592;28;20456;-72
2022/12/01 11:09:05;;;;;;;39.00;20.95;;;3.50;99.90;;;;;;5097851;28;20050;-74
2022/12/01 11:11:34;;;;;;;36.17;19.85;;;3.50;99.90;;;;;;5104518;28;20368;-74
2022/12/01 11:14:17;;;;;;;36.90;19.63;;;3.60;99.90;;;;;;5091850;28;20035;-75
2022/12/01 11:16:46;;;;;;;32.42;18.10;;;3.70;99.90;;;;;;5100347;28;20028;-75
2022/12/01 11:19:33;;;;;;;41.13;20.90;;;3.70;99.90;;;;;;5104512;28;20104;-75
2022/12/01 11:22:02;;;;;;;34.08;19.25;;;3.80;99.90;;;;;;5098912;28;20028;-75
2022/12/01 11:24:29;;;;;;;38.25;20.40;;;3.80;99.90;;;;;;5103611;28;20024;-76
2022/12/01 11:26:57;;;;;;;38.47;18.73;;;3.90;99.90;;;;;;5101770;28;20048;-74
2022/12/01 11:29:35;;;;;;;32.17;18.75;;;3.90;99.90;;;;;;5105267;28;20114;-74
2022/12/01 11:32:10;;;;;;;38.22;20.25;;;3.80;99.90;;;;;;5105820;28;20362;-75
2022/12/01 11:34:37;;;;;;;37.25;19.52;;;3.80;99.90;;;;;;5100793;28;20077;-75
2022/12/01 11:37:06;;;;;;;37.63;21.05;;;3.90;99.90;;;;;;5102700;28;20439;-74
2022/12/01 11:39:42;;;;;;;33.45;18.60;;;3.90;99.90;;;;;;5106273;28;20096;-74
2022/12/01 11:42:11;;;;;;;38.67;21.13;;;3.90;99.90;;;;;;5093553;28;20028;-73
2022/12/01 11:44:37;;;;;;;38.58;18.90;;;3.90;99.90;;;;;;5103063;28;20261;-73
2022/12/01 11:47:17;;;;;;;38.22;19.35;;;3.90;99.90;;;;;;5103177;28;20020;-73
2022/12/01 11:49:50;;;;;;;40.63;19.90;;;4.00;99.90;;;;;;5098578;28;20499;-74
2022/12/01 11:52:22;;;;;;;37.47;19.05;;;4.00;99.90;;;;;;5104157;28;20024;-74
2022/12/01 11:54:57;;;;;;;37.80;19.70;;;4.00;99.90;;;;;;5092806;28;20369;-73
2022/12/01 11:57:23;;;;;;;31.52;18.25;;;3.90;99.90;;;;;;5103446;28;20028;-73
2022/12/01 11:59:49;;;;;;;36.08;18.88;;;3.90;99.90;;;;;;5105890;28;20571;-73
2022/12/01 12:02:32;;;;;;;34.50;20.02;;;4.00;99.90;;;;;;5095159;28;20497;-74
2022/12/01 12:05:16;;;;;;;37.40;19.33;;;4.00;99.90;;;;;;5103439;28;20024;-75
2022/12/01 12:08:17;;;;;;;32.92;18.55;;;4.00;99.90;;;;;;5099732;28;20032;-74
2022/12/01 12:10:46;;;;;;;38.30;19.80;;;4.10;99.90;;;;;;5086299;28;20024;-73
2022/12/01 12:13:33;;;;;;;35.47;20.02;;;4.10;99.90;;;;;;5085964;28;20016;-74
2022/12/01 12:16:05;;;;;;;33.70;18.55;;;4.10;99.90;;;;;;5056574;28;20025;-73
2022/12/01 12:18:47;;;;;;;36.20;19.40;;;4.10;99.90;;;;;;5081909;28;20103;-74
2022/12/01 12:21:25;;;;;;;34.75;19.13;;;4.10;99.90;;;;;;5081200;28;20089;-75
2022/12/01 12:23:58;;;;;;;32.42;18.45;;;4.20;99.90;;;;;;5077961;28;20373;-74
2022/12/01 12:26:26;;;;;;;37.03;19.30;;;4.20;99.90;;;;;;5066311;28;20028;-73
2022/12/01 12:29:13;;;;;;;33.83;18.50;;;4.20;99.90;;;;;;5071782;28;20029;-74
2022/12/01 12:32:12;;;;;;;36.92;18.45;;;4.20;99.90;;;;;;5075223;28;20481;-75
2022/12/01 12:34:47;;;;;;;36.25;19.58;;;4.20;99.90;;;;;;5083967;28;20469;-74
2022/12/01 12:37:31;;;;;;;35.17;19.23;;;4.30;99.90;;;;;;5089573;28;20039;-74
2022/12/01 12:40:18;;;;;;;30.20;17.63;;;4.30;99.90;;;;;;5074590;28;20128;-74
2022/12/01 12:43:02;;;;;;;30.63;17.70;;;4.40;99.90;;;;;;5083571;28;20025;-73
2022/12/01 12:45:47;;;;;;;34.35;17.65;;;4.40;99.90;;;;;;5080598;28;20027;-75
2022/12/01 12:48:48;;;;;;;35.92;19.02;;;4.40;99.90;;;;;;5085734;28;20499;-75
2022/12/01 12:51:19;;;;;;;33.83;17.67;;;4.50;99.90;;;;;;5055608;28;20376;-76
2022/12/01 12:54:11;;;;;;;31.75;18.25;;;4.60;99.90;;;;;;5081751;28;20096;-74
2022/12/01 12:56:42;;;;;;;33.20;16.98;;;4.70;99.90;;;;;;5074867;28;20372;-75